sensor_id;sensor_type;location;lat;lon;timestamp;temperature;humidity
39957;DHT22;48483;44.640;7.494;2024-01-10T00:02:20;5.60;99.90
39957;DHT22;48483;44.640;7.494;2024-01-10T00:04:47;5.60;99.90
39957;DHT22;48483;44.640;7.494;2024-01-10T00:07:14;5.60;99.90
39957;DHT22;48483;44.640;7.494;2024-01-10T00:09:40;5.60;99.90
39957;DHT22;48483;44.640;7.494;2024-01-10T00:12:08;5.70;99.90
39957;DHT22;48483;44.640;7.494;2024-01-10T00:14:35;5.70;99.90
39957;DHT22;48483;44.640;7.494;2024-01-10T00:17:02;5.70;99.90
39957;DHT22;48483;44.640;7.494;2024-01-10T00:19:29;5.60;99.90
39957;DHT22;48483;44.640;7.494;2024-01-10T00:21:55;5.60;99.90
39957;DHT22;48483;44.640;7.494;2024-01-10T00:24:22;5.60;99.90
39957;DHT22;48483;44.640;7.494;2024-01-10T00:26:49;5.70;99.90
39957;DHT22;48483;44.640;7.494;2024-01-10T00:29:17;5.60;99.90
39957;DHT22;48483;44.640;7.494;2024-01-10T00:31:45;5.60;99.90
39957;DHT22;48483;44.640;7.494;2024-01-10T00:34:12;5.60;99.90
39957;DHT22;48483;44.640;7.494;2024-01-10T00:36:39;5.70;99.90
39957;DHT22;48483;44.640;7.494;2024-01-10T00:39:06;5.70;99.90
39957;DHT22;48483;44.640;7.494;2024-01-10T00:41:33;5.60;99.90
39957;DHT22;48483;44.640;7.494;2024-01-10T00:43:59;5.60;99.90
39957;DHT22;48483;44.640;7.494;2024-01-10T00:46:27;5.60;99.90
39957;DHT22;48483;44.640;7.494;2024-01-10T00:48:54;5.60;99.90
39957;DHT22;48483;44.640;7.494;2024-01-10T00:51:21;5.60;99.90
39957;DHT22;48483;44.640;7.494;2024-01-10T00:53:47;5.60;99.90
39957;DHT22;48483;44.640;7.494;2024-01-10T00:56:14;5.60;99.90
39957;DHT22;48483;44.640;7.494;2024-01-10T00:58:41;5.60;99.90
39957;DHT22;48483;44.640;7.494;2024-01-10T01:01:08;5.60;99.90
39957;DHT22;48483;44.640;7.494;2024-01-10T01:03:36;5.60;99.90
39957;DHT22;48483;44.640;7.494;2024-01-10T01:06:03;5.60;99.90
39957;DHT22;48483;44.640;7.494;2024-01-10T01:08:29;5.60;99.90
39957;DHT22;48483;44.640;7.494;2024-01-10T01:10:56;5.60;99.90
39957;DHT22;48483;44.640;7.494;2024-01-10T01:13:22;5.60;99.90
39957;DHT22;48483;44.640;7.494;2024-01-10T01:15:49;5.60;99.90
39957;DHT22;48483;44.640;7.494;2024-01-10T01:18:16;5.60;99.90
39957;DHT22;48483;44.640;7.494;2024-01-10T01:20:44;5.60;99.90
39957;DHT22;48483;44.640;7.494;2024-01-10T01:23:11;5.60;99.90
39957;DHT22;48483;44.640;7.494;2024-01-10T01:25:37;5.60;99.90
39957;DHT22;48483;44.640;7.494;2024-01-10T01:28:04;5.60;99.90
39957;DHT22;48483;44.640;7.494;2024-01-10T01:30:31;5.60;99.90
39957;DHT22;48483;44.640;7.494;2024-01-10T01:32:58;5.60;99.90
39957;DHT22;48483;44.640;7.494;2024-01-10T01:35:24;5.60;99.90
39957;DHT22;48483;44.640;7.494;2024-01-10T01:37:52;5.60;99.90
39957;DHT22;48483;44.640;7.494;2024-01-10T01:40:19;5.60;99.90
39957;DHT22;48483;44.640;7.494;2024-01-10T01:42:46;5.60;99.90
39957;DHT22;48483;44.640;7.494;2024-01-10T01:45:12;5.50;99.90
39957;DHT22;48483;44.640;7.494;2024-01-10T01:47:40;5.60;99.90
39957;DHT22;48483;44.640;7.494;2024-01-10T01:50:07;5.50;99.90
39957;DHT22;48483;44.640;7.494;2024-01-10T01:52:34;5.50;99.90
39957;DHT22;48483;44.640;7.494;2024-01-10T01:55:03;5.50;99.90
39957;DHT22;48483;44.640;7.494;2024-01-10T01:57:31;5.50;99.90
39957;DHT22;48483;44.640;7.494;2024-01-10T01:59:58;5.50;99.90
39957;DHT22;48483;44.640;7.494;2024-01-10T02:02:24;5.50;99.90
39957;DHT22;48483;44.640;7.494;2024-01-10T02:04:52;5.50;99.90
39957;DHT22;48483;44.640;7.494;2024-01-10T02:07:18;5.50;99.90
39957;DHT22;48483;44.640;7.494;2024-01-10T02:09:45;5.50;99.90
39957;DHT22;48483;44.640;7.494;2024-01-10T02:12:13;5.50;99.90
39957;DHT22;48483;44.640;7.494;2024-01-10T02:14:40;5.50;99.90
39957;DHT22;48483;44.640;7.494;2024-01-10T02:17:07;5.50;99.90
39957;DHT22;48483;44.640;7.494;2024-01-10T02:19:33;5.50;99.90
39957;DHT22;48483;44.640;7.494;2024-01-10T02:22:01;5.50;99.90
39957;DHT22;48483;44.640;7.494;2024-01-10T02:24:29;5.50;99.90
39957;DHT22;48483;44.640;7.494;2024-01-10T02:26:57;5.50;99.90
39957;DHT22;48483;44.640;7.494;2024-01-10T02:29:24;5.50;99.90
39957;DHT22;48483;44.640;7.494;2024-01-10T02:31:50;5.50;99.90
39957;DHT22;48483;44.640;7.494;2024-01-10T02:34:17;5.50;99.90
39957;DHT22;48483;44.640;7.494;2024-01-10T02:36:43;5.50;99.90
39957;DHT22;48483;44.640;7.494;2024-01-10T02:39:10;5.50;99.90
39957;DHT22;48483;44.640;7.494;2024-01-10T02:41:37;5.50;99.90
39957;DHT22;48483;44.640;7.494;2024-01-10T02:44:05;5.50;99.90
39957;DHT22;48483;44.640;7.494;2024-01-10T02:46:32;5.50;99.90
39957;DHT22;48483;44.640;7.494;2024-01-10T02:48:58;5.40;99.90
39957;DHT22;48483;44.640;7.494;2024-01-10T02:51:27;5.50;99.90
39957;DHT22;48483;44.640;7.494;2024-01-10T02:53:54;5.50;99.90
39957;DHT22;48483;44.640;7.494;2024-01-10T02:56:21;5.50;99.90
39957;DHT22;48483;44.640;7.494;2024-01-10T02:58:47;5.50;99.90
39957;DHT22;48483;44.640;7.494;2024-01-10T03:01:15;5.60;99.90
39957;DHT22;48483;44.640;7.494;2024-01-10T03:03:42;5.60;99.90
39957;DHT22;48483;44.640;7.494;2024-01-10T03:06:09;5.60;99.90
39957;DHT22;48483;44.640;7.494;2024-01-10T03:08:36;5.60;99.90
39957;DHT22;48483;44.640;7.494;2024-01-10T03:11:02;5.60;99.90
39957;DHT22;48483;44.640;7.494;2024-01-10T03:13:29;5.60;99.90
39957;DHT22;48483;44.640;7.494;2024-01-10T03:15:56;5.60;99.90
39957;DHT22;48483;44.640;7.494;2024-01-10T03:18:24;5.60;99.90
39957;DHT22;48483;44.640;7.494;2024-01-10T03:20:51;5.60;99.90
39957;DHT22;48483;44.640;7.494;2024-01-10T03:23:18;5.60;99.90
39957;DHT22;48483;44.640;7.494;2024-01-10T03:25:45;5.50;99.90
39957;DHT22;48483;44.640;7.494;2024-01-10T03:28:15;5.50;99.90
39957;DHT22;48483;44.640;7.494;2024-01-10T03:30:42;5.50;99.90
39957;DHT22;48483;44.640;7.494;2024-01-10T03:33:09;5.50;99.90
39957;DHT22;48483;44.640;7.494;2024-01-10T03:35:37;5.50;99.90
39957;DHT22;48483;44.640;7.494;2024-01-10T03:38:04;5.50;99.90
39957;DHT22;48483;44.640;7.494;2024-01-10T03:40:30;5.50;99.90
39957;DHT22;48483;44.640;7.494;2024-01-10T03:42:57;5.50;99.90
39957;DHT22;48483;44.640;7.494;2024-01-10T03:45:24;5.50;99.90
39957;DHT22;48483;44.640;7.494;2024-01-10T03:47:51;5.50;99.90
39957;DHT22;48483;44.640;7.494;2024-01-10T03:50:18;5.40;99.90
39957;DHT22;48483;44.640;7.494;2024-01-10T03:52:47;5.40;99.90
39957;DHT22;48483;44.640;7.494;2024-01-10T03:55:14;5.50;99.90
39957;DHT22;48483;44.640;7.494;2024-01-10T03:57:41;5.50;99.90
39957;DHT22;48483;44.640;7.494;2024-01-10T04:00:09;5.50;99.90
39957;DHT22;48483;44.640;7.494;2024-01-10T04:02:37;5.40;99.90
39957;DHT22;48483;44.640;7.494;2024-01-10T04:05:07;5.40;99.90
39957;DHT22;48483;44.640;7.494;2024-01-10T04:07:36;5.40;99.90
39957;DHT22;48483;44.640;7.494;2024-01-10T04:10:05;5.50;99.90
39957;DHT22;48483;44.640;7.494;2024-01-10T04:12:34;5.50;99.90
39957;DHT22;48483;44.640;7.494;2024-01-10T04:15:01;5.40;99.90
39957;DHT22;48483;44.640;7.494;2024-01-10T04:17:27;5.40;99.90
39957;DHT22;48483;44.640;7.494;2024-01-10T04:19:54;5.40;99.90
39957;DHT22;48483;44.640;7.494;2024-01-10T04:22:21;5.40;99.90
39957;DHT22;48483;44.640;7.494;2024-01-10T04:24:47;5.40;99.90
39957;DHT22;48483;44.640;7.494;2024-01-10T04:27:16;5.40;99.90
39957;DHT22;48483;44.640;7.494;2024-01-10T04:29:42;5.40;99.90
39957;DHT22;48483;44.640;7.494;2024-01-10T04:32:09;5.40;99.90
39957;DHT22;48483;44.640;7.494;2024-01-10T04:34:36;5.40;99.90
39957;DHT22;48483;44.640;7.494;2024-01-10T04:37:03;5.40;99.90
39957;DHT22;48483;44.640;7.494;2024-01-10T04:39:29;5.40;99.90
39957;DHT22;48483;44.640;7.494;2024-01-10T04:41:56;5.40;99.90
39957;DHT22;48483;44.640;7.494;2024-01-10T04:44:24;5.40;99.90
39957;DHT22;48483;44.640;7.494;2024-01-10T04:46:51;5.40;99.90
39957;DHT22;48483;44.640;7.494;2024-01-10T04:49:17;5.40;99.90
39957;DHT22;48483;44.640;7.494;2024-01-10T04:51:44;5.40;99.90
39957;DHT22;48483;44.640;7.494;2024-01-10T04:54:11;5.40;99.90
39957;DHT22;48483;44.640;7.494;2024-01-10T04:56:38;5.40;99.90
39957;DHT22;48483;44.640;7.494;2024-01-10T04:59:05;5.40;99.90
39957;DHT22;48483;44.640;7.494;2024-01-10T05:01:34;5.30;99.90
39957;DHT22;48483;44.640;7.494;2024-01-10T05:04:01;5.30;99.90
39957;DHT22;48483;44.640;7.494;2024-01-10T05:06:28;5.30;99.90
39957;DHT22;48483;44.640;7.494;2024-01-10T05:08:54;5.30;99.90
39957;DHT22;48483;44.640;7.494;2024-01-10T05:11:25;5.30;99.90
39957;DHT22;48483;44.640;7.494;2024-01-10T05:13:54;5.30;99.90
39957;DHT22;48483;44.640;7.494;2024-01-10T05:16:21;5.30;99.90
39957;DHT22;48483;44.640;7.494;2024-01-10T05:18:49;5.30;99.90
39957;DHT22;48483;44.640;7.494;2024-01-10T05:21:16;5.30;99.90
39957;DHT22;48483;44.640;7.494;2024-01-10T05:23:42;5.30;99.90
39957;DHT22;48483;44.640;7.494;2024-01-10T05:26:09;5.30;99.90
39957;DHT22;48483;44.640;7.494;2024-01-10T05:28:36;5.30;99.90
39957;DHT22;48483;44.640;7.494;2024-01-10T05:31:03;5.30;99.90
39957;DHT22;48483;44.640;7.494;2024-01-10T05:33:29;5.30;99.90
39957;DHT22;48483;44.640;7.494;2024-01-10T05:35:58;5.30;99.90
39957;DHT22;48483;44.640;7.494;2024-01-10T05:38:24;5.30;99.90
39957;DHT22;48483;44.640;7.494;2024-01-10T05:40:51;5.20;99.90
39957;DHT22;48483;44.640;7.494;2024-01-10T05:43:18;5.30;99.90
39957;DHT22;48483;44.640;7.494;2024-01-10T05:45:44;5.30;99.90
39957;DHT22;48483;44.640;7.494;2024-01-10T05:48:11;5.30;99.90
39957;DHT22;48483;44.640;7.494;2024-01-10T05:50:38;5.30;99.90
39957;DHT22;48483;44.640;7.494;2024-01-10T05:53:07;5.30;99.90
39957;DHT22;48483;44.640;7.494;2024-01-10T05:55:35;5.30;99.90
39957;DHT22;48483;44.640;7.494;2024-01-10T05:58:03;5.30;99.90
39957;DHT22;48483;44.640;7.494;2024-01-10T06:00:30;5.30;99.90
39957;DHT22;48483;44.640;7.494;2024-01-10T06:02:56;5.30;99.90
39957;DHT22;48483;44.640;7.494;2024-01-10T06:05:23;5.30;99.90
39957;DHT22;48483;44.640;7.494;2024-01-10T06:07:50;5.30;99.90
39957;DHT22;48483;44.640;7.494;2024-01-10T06:10:18;5.30;99.90
39957;DHT22;48483;44.640;7.494;2024-01-10T06:12:44;5.30;99.90
39957;DHT22;48483;44.640;7.494;2024-01-10T06:15:11;5.30;99.90
39957;DHT22;48483;44.640;7.494;2024-01-10T06:17:38;5.20;99.90
39957;DHT22;48483;44.640;7.494;2024-01-10T06:20:05;5.30;99.90
39957;DHT22;48483;44.640;7.494;2024-01-10T06:22:33;5.20;99.90
39957;DHT22;48483;44.640;7.494;2024-01-10T06:25:00;5.30;99.90
39957;DHT22;48483;44.640;7.494;2024-01-10T06:27:28;5.20;99.90
39957;DHT22;48483;44.640;7.494;2024-01-10T06:29:55;5.10;99.90
39957;DHT22;48483;44.640;7.494;2024-01-10T06:32:21;5.00;99.90
39957;DHT22;48483;44.640;7.494;2024-01-10T06:34:48;5.10;99.90
39957;DHT22;48483;44.640;7.494;2024-01-10T06:37:15;5.10;99.90
39957;DHT22;48483;44.640;7.494;2024-01-10T06:39:42;5.20;99.90
39957;DHT22;48483;44.640;7.494;2024-01-10T06:42:10;5.00;99.90
39957;DHT22;48483;44.640;7.494;2024-01-10T06:44:39;5.10;99.90
39957;DHT22;48483;44.640;7.494;2024-01-10T06:47:06;5.00;99.90
39957;DHT22;48483;44.640;7.494;2024-01-10T06:49:33;5.00;99.90
39957;DHT22;48483;44.640;7.494;2024-01-10T06:52:00;5.00;99.90
39957;DHT22;48483;44.640;7.494;2024-01-10T06:54:27;5.10;99.90
39957;DHT22;48483;44.640;7.494;2024-01-10T06:56:53;5.10;99.90
39957;DHT22;48483;44.640;7.494;2024-01-10T06:59:20;5.10;99.90
39957;DHT22;48483;44.640;7.494;2024-01-10T07:01:52;5.10;99.90
39957;DHT22;48483;44.640;7.494;2024-01-10T07:04:19;4.90;99.90
39957;DHT22;48483;44.640;7.494;2024-01-10T07:06:48;4.70;99.90
39957;DHT22;48483;44.640;7.494;2024-01-10T07:09:15;4.80;99.90
39957;DHT22;48483;44.640;7.494;2024-01-10T07:11:46;4.80;99.90
39957;DHT22;48483;44.640;7.494;2024-01-10T07:14:13;4.70;99.90
39957;DHT22;48483;44.640;7.494;2024-01-10T07:16:40;4.70;99.90
39957;DHT22;48483;44.640;7.494;2024-01-10T07:19:10;4.80;99.90
39957;DHT22;48483;44.640;7.494;2024-01-10T07:21:39;4.70;99.90
39957;DHT22;48483;44.640;7.494;2024-01-10T07:24:07;4.60;99.90
39957;DHT22;48483;44.640;7.494;2024-01-10T07:26:36;4.70;99.90
39957;DHT22;48483;44.640;7.494;2024-01-10T07:29:04;4.80;99.90
39957;DHT22;48483;44.640;7.494;2024-01-10T07:31:30;4.70;99.90
39957;DHT22;48483;44.640;7.494;2024-01-10T07:33:58;4.80;99.90
39957;DHT22;48483;44.640;7.494;2024-01-10T07:36:26;4.80;99.90
39957;DHT22;48483;44.640;7.494;2024-01-10T07:38:53;4.80;99.90
39957;DHT22;48483;44.640;7.494;2024-01-10T07:41:19;4.90;99.90
39957;DHT22;48483;44.640;7.494;2024-01-10T07:43:46;4.80;99.90
39957;DHT22;48483;44.640;7.494;2024-01-10T07:46:13;4.90;99.90
39957;DHT22;48483;44.640;7.494;2024-01-10T07:48:40;4.90;99.90
39957;DHT22;48483;44.640;7.494;2024-01-10T07:51:07;4.90;99.90
39957;DHT22;48483;44.640;7.494;2024-01-10T07:53:35;5.00;99.90
39957;DHT22;48483;44.640;7.494;2024-01-10T07:56:03;5.00;99.90
39957;DHT22;48483;44.640;7.494;2024-01-10T07:58:29;5.00;99.90
39957;DHT22;48483;44.640;7.494;2024-01-10T08:00:56;5.00;99.90
39957;DHT22;48483;44.640;7.494;2024-01-10T08:03:23;5.00;99.90
39957;DHT22;48483;44.640;7.494;2024-01-10T08:05:50;5.10;99.90
39957;DHT22;48483;44.640;7.494;2024-01-10T08:08:16;5.00;99.90
39957;DHT22;48483;44.640;7.494;2024-01-10T08:10:45;5.00;99.90
39957;DHT22;48483;44.640;7.494;2024-01-10T08:13:11;5.00;99.90
39957;DHT22;48483;44.640;7.494;2024-01-10T08:15:38;5.10;99.90
39957;DHT22;48483;44.640;7.494;2024-01-10T08:18:05;5.10;99.90
39957;DHT22;48483;44.640;7.494;2024-01-10T08:20:33;5.10;99.90
39957;DHT22;48483;44.640;7.494;2024-01-10T08:23:00;5.10;99.90
39957;DHT22;48483;44.640;7.494;2024-01-10T08:25:27;5.10;99.90
39957;DHT22;48483;44.640;7.494;2024-01-10T08:27:55;5.10;99.90
39957;DHT22;48483;44.640;7.494;2024-01-10T08:30:23;5.20;99.90
39957;DHT22;48483;44.640;7.494;2024-01-10T08:32:50;5.20;99.90
39957;DHT22;48483;44.640;7.494;2024-01-10T08:35:18;5.20;99.90
39957;DHT22;48483;44.640;7.494;2024-01-10T08:37:45;5.20;99.90
39957;DHT22;48483;44.640;7.494;2024-01-10T08:40:13;5.20;99.90
39957;DHT22;48483;44.640;7.494;2024-01-10T08:42:41;5.20;99.90
39957;DHT22;48483;44.640;7.494;2024-01-10T08:45:10;5.20;99.90
39957;DHT22;48483;44.640;7.494;2024-01-10T08:47:37;5.20;99.90
39957;DHT22;48483;44.640;7.494;2024-01-10T08:50:05;5.20;99.90
39957;DHT22;48483;44.640;7.494;2024-01-10T08:52:35;5.20;99.90
39957;DHT22;48483;44.640;7.494;2024-01-10T08:55:05;5.20;99.90
39957;DHT22;48483;44.640;7.494;2024-01-10T08:57:32;5.00;99.90
39957;DHT22;48483;44.640;7.494;2024-01-10T08:59:58;5.00;99.90
39957;DHT22;48483;44.640;7.494;2024-01-10T09:02:27;5.10;99.90
39957;DHT22;48483;44.640;7.494;2024-01-10T09:04:54;5.10;99.90
39957;DHT22;48483;44.640;7.494;2024-01-10T09:07:21;5.10;99.90
39957;DHT22;48483;44.640;7.494;2024-01-10T09:09:48;5.10;99.90
39957;DHT22;48483;44.640;7.494;2024-01-10T09:12:14;5.20;99.90
39957;DHT22;48483;44.640;7.494;2024-01-10T09:14:42;5.20;99.90
39957;DHT22;48483;44.640;7.494;2024-01-10T09:17:08;5.20;99.90
39957;DHT22;48483;44.640;7.494;2024-01-10T09:19:36;5.30;99.90
39957;DHT22;48483;44.640;7.494;2024-01-10T09:22:03;5.30;99.90
39957;DHT22;48483;44.640;7.494;2024-01-10T09:24:30;5.40;99.90
39957;DHT22;48483;44.640;7.494;2024-01-10T09:26:57;5.40;99.90
39957;DHT22;48483;44.640;7.494;2024-01-10T09:29:24;5.40;99.90
39957;DHT22;48483;44.640;7.494;2024-01-10T09:31:52;5.40;99.90
39957;DHT22;48483;44.640;7.494;2024-01-10T09:34:19;5.30;99.90
39957;DHT22;48483;44.640;7.494;2024-01-10T09:36:47;5.40;99.90
39957;DHT22;48483;44.640;7.494;2024-01-10T09:39:15;5.30;99.90
39957;DHT22;48483;44.640;7.494;2024-01-10T09:41:46;5.40;99.90
39957;DHT22;48483;44.640;7.494;2024-01-10T09:44:17;5.30;99.90
39957;DHT22;48483;44.640;7.494;2024-01-10T09:46:48;5.40;99.90
39957;DHT22;48483;44.640;7.494;2024-01-10T09:49:15;5.40;99.90
39957;DHT22;48483;44.640;7.494;2024-01-10T09:51:42;5.40;99.90
39957;DHT22;48483;44.640;7.494;2024-01-10T09:54:10;5.40;99.90
39957;DHT22;48483;44.640;7.494;2024-01-10T09:56:37;5.40;99.90
39957;DHT22;48483;44.640;7.494;2024-01-10T09:59:04;5.40;99.90
39957;DHT22;48483;44.640;7.494;2024-01-10T10:01:32;5.40;99.90
39957;DHT22;48483;44.640;7.494;2024-01-10T10:04:01;5.40;99.90
39957;DHT22;48483;44.640;7.494;2024-01-10T10:06:28;5.40;99.90
39957;DHT22;48483;44.640;7.494;2024-01-10T10:08:55;5.40;99.90
39957;DHT22;48483;44.640;7.494;2024-01-10T10:11:23;5.40;99.90
39957;DHT22;48483;44.640;7.494;2024-01-10T10:13:50;5.50;99.90
39957;DHT22;48483;44.640;7.494;2024-01-10T10:16:24;5.40;99.90
39957;DHT22;48483;44.640;7.494;2024-01-10T10:18:54;5.40;99.90
39957;DHT22;48483;44.640;7.494;2024-01-10T10:21:24;5.40;99.90
39957;DHT22;48483;44.640;7.494;2024-01-10T10:24:01;5.50;99.90
39957;DHT22;48483;44.640;7.494;2024-01-10T10:26:32;5.50;99.90
39957;DHT22;48483;44.640;7.494;2024-01-10T10:28:59;5.40;99.90
39957;DHT22;48483;44.640;7.494;2024-01-10T10:31:26;5.40;99.90
39957;DHT22;48483;44.640;7.494;2024-01-10T10:33:52;5.40;99.90
39957;DHT22;48483;44.640;7.494;2024-01-10T10:36:19;5.40;99.90
39957;DHT22;48483;44.640;7.494;2024-01-10T10:38:49;5.50;99.90
39957;DHT22;48483;44.640;7.494;2024-01-10T10:41:16;5.50;99.90
39957;DHT22;48483;44.640;7.494;2024-01-10T10:43:44;5.50;99.90
39957;DHT22;48483;44.640;7.494;2024-01-10T10:46:11;5.60;99.90
39957;DHT22;48483;44.640;7.494;2024-01-10T10:48:41;5.60;99.90
39957;DHT22;48483;44.640;7.494;2024-01-10T10:51:11;5.50;99.90
39957;DHT22;48483;44.640;7.494;2024-01-10T10:53:38;5.50;99.90
39957;DHT22;48483;44.640;7.494;2024-01-10T10:56:07;5.50;99.90
39957;DHT22;48483;44.640;7.494;2024-01-10T10:58:36;5.60;99.90
39957;DHT22;48483;44.640;7.494;2024-01-10T11:01:07;5.50;99.90
39957;DHT22;48483;44.640;7.494;2024-01-10T11:03:35;5.50;99.90
39957;DHT22;48483;44.640;7.494;2024-01-10T11:06:04;5.40;99.90
39957;DHT22;48483;44.640;7.494;2024-01-10T11:08:34;5.40;99.90
39957;DHT22;48483;44.640;7.494;2024-01-10T11:11:03;5.40;99.90
39957;DHT22;48483;44.640;7.494;2024-01-10T11:13:44;5.50;99.90
39957;DHT22;48483;44.640;7.494;2024-01-10T11:16:47;5.60;99.90
39957;DHT22;48483;44.640;7.494;2024-01-10T11:19:38;5.60;99.90
39957;DHT22;48483;44.640;7.494;2024-01-10T11:22:33;5.60;99.90
39957;DHT22;48483;44.640;7.494;2024-01-10T11:25:04;5.60;99.90
39957;DHT22;48483;44.640;7.494;2024-01-10T11:27:31;5.60;99.90
39957;DHT22;48483;44.640;7.494;2024-01-10T11:29:58;5.70;99.90
39957;DHT22;48483;44.640;7.494;2024-01-10T11:32:27;5.60;99.90
39957;DHT22;48483;44.640;7.494;2024-01-10T11:34:57;5.70;99.90
39957;DHT22;48483;44.640;7.494;2024-01-10T11:37:28;5.70;99.90
39957;DHT22;48483;44.640;7.494;2024-01-10T11:40:07;5.70;99.90
39957;DHT22;48483;44.640;7.494;2024-01-10T11:42:41;5.60;99.90
39957;DHT22;48483;44.640;7.494;2024-01-10T11:45:08;5.60;99.90
39957;DHT22;48483;44.640;7.494;2024-01-10T11:47:38;5.60;99.90
39957;DHT22;48483;44.640;7.494;2024-01-10T11:50:07;5.60;99.90
39957;DHT22;48483;44.640;7.494;2024-01-10T11:52:36;5.70;99.90
39957;DHT22;48483;44.640;7.494;2024-01-10T11:55:03;5.70;99.90
39957;DHT22;48483;44.640;7.494;2024-01-10T11:57:33;5.70;99.90
39957;DHT22;48483;44.640;7.494;2024-01-10T12:00:00;5.60;99.90
39957;DHT22;48483;44.640;7.494;2024-01-10T12:02:29;5.60;99.90
39957;DHT22;48483;44.640;7.494;2024-01-10T12:04:57;5.60;99.90
39957;DHT22;48483;44.640;7.494;2024-01-10T12:07:24;5.60;99.90
39957;DHT22;48483;44.640;7.494;2024-01-10T12:09:51;5.60;99.90
39957;DHT22;48483;44.640;7.494;2024-01-10T12:12:18;5.60;99.90
39957;DHT22;48483;44.640;7.494;2024-01-10T12:14:45;5.60;99.90
39957;DHT22;48483;44.640;7.494;2024-01-10T12:17:15;5.60;99.90
39957;DHT22;48483;44.640;7.494;2024-01-10T12:19:41;5.70;99.90
39957;DHT22;48483;44.640;7.494;2024-01-10T12:22:12;5.80;99.90
39957;DHT22;48483;44.640;7.494;2024-01-10T12:24:43;5.80;99.90
39957;DHT22;48483;44.640;7.494;2024-01-10T12:27:11;5.80;99.90
39957;DHT22;48483;44.640;7.494;2024-01-10T12:29:38;5.80;99.90
39957;DHT22;48483;44.640;7.494;2024-01-10T12:32:05;5.80;99.90
39957;DHT22;48483;44.640;7.494;2024-01-10T12:34:33;5.90;99.90
39957;DHT22;48483;44.640;7.494;2024-01-10T12:37:03;5.90;99.90
39957;DHT22;48483;44.640;7.494;2024-01-10T12:39:32;5.80;99.90
39957;DHT22;48483;44.640;7.494;2024-01-10T12:41:59;5.90;99.90
39957;DHT22;48483;44.640;7.494;2024-01-10T12:44:28;5.80;99.90
39957;DHT22;48483;44.640;7.494;2024-01-10T12:46:55;5.80;99.90
39957;DHT22;48483;44.640;7.494;2024-01-10T12:49:23;5.90;99.90
39957;DHT22;48483;44.640;7.494;2024-01-10T12:51:50;5.80;99.90
39957;DHT22;48483;44.640;7.494;2024-01-10T12:54:17;5.80;99.90
39957;DHT22;48483;44.640;7.494;2024-01-10T12:56:45;5.80;99.90
39957;DHT22;48483;44.640;7.494;2024-01-10T12:59:12;5.90;99.90
39957;DHT22;48483;44.640;7.494;2024-01-10T13:01:39;5.90;99.90
39957;DHT22;48483;44.640;7.494;2024-01-10T13:04:05;6.00;99.90
39957;DHT22;48483;44.640;7.494;2024-01-10T13:06:32;6.00;99.90
39957;DHT22;48483;44.640;7.494;2024-01-10T13:08:58;6.00;99.90
39957;DHT22;48483;44.640;7.494;2024-01-10T13:11:25;6.00;99.90
39957;DHT22;48483;44.640;7.494;2024-01-10T13:13:53;6.00;99.90
39957;DHT22;48483;44.640;7.494;2024-01-10T13:16:20;5.90;99.90
39957;DHT22;48483;44.640;7.494;2024-01-10T13:18:46;5.90;99.90
39957;DHT22;48483;44.640;7.494;2024-01-10T13:21:13;5.90;99.90
39957;DHT22;48483;44.640;7.494;2024-01-10T13:23:39;5.90;99.90
39957;DHT22;48483;44.640;7.494;2024-01-10T13:26:06;5.90;99.90
39957;DHT22;48483;44.640;7.494;2024-01-10T13:28:33;5.80;99.90
39957;DHT22;48483;44.640;7.494;2024-01-10T13:31:01;5.90;99.90
39957;DHT22;48483;44.640;7.494;2024-01-10T13:33:29;5.90;99.90
39957;DHT22;48483;44.640;7.494;2024-01-10T13:35:56;5.90;99.90
39957;DHT22;48483;44.640;7.494;2024-01-10T13:38:23;5.90;99.90
39957;DHT22;48483;44.640;7.494;2024-01-10T13:40:50;5.90;99.90
39957;DHT22;48483;44.640;7.494;2024-01-10T13:43:17;5.90;99.90
39957;DHT22;48483;44.640;7.494;2024-01-10T13:45:44;5.80;99.90
39957;DHT22;48483;44.640;7.494;2024-01-10T13:48:12;5.80;99.90
39957;DHT22;48483;44.640;7.494;2024-01-10T13:50:38;5.80;99.90
39957;DHT22;48483;44.640;7.494;2024-01-10T13:53:05;5.90;99.90
39957;DHT22;48483;44.640;7.494;2024-01-10T13:55:32;5.90;99.90
39957;DHT22;48483;44.640;7.494;2024-01-10T13:57:58;5.90;99.90
39957;DHT22;48483;44.640;7.494;2024-01-10T14:00:25;5.80;99.90
39957;DHT22;48483;44.640;7.494;2024-01-10T14:02:52;5.80;99.90
39957;DHT22;48483;44.640;7.494;2024-01-10T14:05:27;5.80;99.90
39957;DHT22;48483;44.640;7.494;2024-01-10T14:07:54;5.80;99.90
39957;DHT22;48483;44.640;7.494;2024-01-10T14:10:21;5.80;99.90
39957;DHT22;48483;44.640;7.494;2024-01-10T14:12:48;5.80;99.90
39957;DHT22;48483;44.640;7.494;2024-01-10T14:15:14;5.80;99.90
39957;DHT22;48483;44.640;7.494;2024-01-10T14:17:41;5.80;99.90
39957;DHT22;48483;44.640;7.494;2024-01-10T14:20:09;5.80;99.90
39957;DHT22;48483;44.640;7.494;2024-01-10T14:22:37;5.90;99.90
39957;DHT22;48483;44.640;7.494;2024-01-10T14:25:05;5.90;99.90
39957;DHT22;48483;44.640;7.494;2024-01-10T14:27:32;5.80;99.90
39957;DHT22;48483;44.640;7.494;2024-01-10T14:29:58;5.80;99.90
39957;DHT22;48483;44.640;7.494;2024-01-10T14:32:26;5.80;99.90
39957;DHT22;48483;44.640;7.494;2024-01-10T14:34:52;5.80;99.90
39957;DHT22;48483;44.640;7.494;2024-01-10T14:37:19;5.80;99.90
39957;DHT22;48483;44.640;7.494;2024-01-10T14:39:48;5.80;99.90
39957;DHT22;48483;44.640;7.494;2024-01-10T14:42:15;5.80;99.90
39957;DHT22;48483;44.640;7.494;2024-01-10T14:44:41;5.80;99.90
39957;DHT22;48483;44.640;7.494;2024-01-10T14:47:08;5.80;99.90
39957;DHT22;48483;44.640;7.494;2024-01-10T14:49:34;5.80;99.90
39957;DHT22;48483;44.640;7.494;2024-01-10T14:52:01;5.80;99.90
39957;DHT22;48483;44.640;7.494;2024-01-10T14:54:28;5.80;99.90
39957;DHT22;48483;44.640;7.494;2024-01-10T14:56:56;5.80;99.90
39957;DHT22;48483;44.640;7.494;2024-01-10T14:59:23;5.80;99.90
39957;DHT22;48483;44.640;7.494;2024-01-10T15:01:49;5.80;99.90
39957;DHT22;48483;44.640;7.494;2024-01-10T15:04:16;5.80;99.90
39957;DHT22;48483;44.640;7.494;2024-01-10T15:06:44;5.80;99.90
39957;DHT22;48483;44.640;7.494;2024-01-10T15:09:10;5.70;99.90
39957;DHT22;48483;44.640;7.494;2024-01-10T15:11:38;5.80;99.90
39957;DHT22;48483;44.640;7.494;2024-01-10T15:14:07;5.80;99.90
39957;DHT22;48483;44.640;7.494;2024-01-10T15:16:35;5.80;99.90
39957;DHT22;48483;44.640;7.494;2024-01-10T15:19:02;5.70;99.90
39957;DHT22;48483;44.640;7.494;2024-01-10T15:21:28;5.70;99.90
39957;DHT22;48483;44.640;7.494;2024-01-10T15:23:55;5.70;99.90
39957;DHT22;48483;44.640;7.494;2024-01-10T15:26:22;5.70;99.90
39957;DHT22;48483;44.640;7.494;2024-01-10T15:28:49;5.70;99.90
39957;DHT22;48483;44.640;7.494;2024-01-10T15:31:18;5.60;99.90
39957;DHT22;48483;44.640;7.494;2024-01-10T15:33:45;5.50;99.90
39957;DHT22;48483;44.640;7.494;2024-01-10T15:36:11;5.50;99.90
39957;DHT22;48483;44.640;7.494;2024-01-10T15:38:39;5.50;99.90
39957;DHT22;48483;44.640;7.494;2024-01-10T15:41:06;5.60;99.90
39957;DHT22;48483;44.640;7.494;2024-01-10T15:43:33;5.50;99.90
39957;DHT22;48483;44.640;7.494;2024-01-10T15:46:00;5.50;99.90
39957;DHT22;48483;44.640;7.494;2024-01-10T15:48:28;5.50;99.90